^^
Datos históricos de la estación: Murcia-Puente Tocinos
Diario Informe para Mayo 15, 2019 Unidades:  Ambas    Ingés   Métrico
Diario Semanal Mensual Anual
  Máxima: Mínima: Promedio:
Temperatura: 61.9 °F /  16.6 °C 41.5 °F /  5.3 °C 50.9 °F /  10.5 °C
Punto de rocio: 48.4 °F /  9.1 °C 34.5 °F /  1.4 °C 41.5 °F /  5.3 °C
Humedad: 88% 48.1% 72%
Velocidad viento: 6.4mph /  10.3km/h - 3.6mph /  5.8km/h
Racha viento: 14mph /  22.5km/h - -
Viento- - SE
Presión: 30.2 in /  1021.8 hPa 30.1 in /  1018.9 hPa -
Precipitación: 0 in /  0.0 mm    
 
 
Tabla de datos para Mayo 15, 2019
Hora Temperatura Punto de rocio Presión Viento Velocidad viento Racha viento Humedad Intensidad lluvia(por hora) Nubes
00:04 50 °F /  10 °C 43.7 °F /  6.5 °C 30.1in /  1019.2hPa SSE 2.4mph /  3.9km/h 3mph /  4.8km/h 79% 0in /  0.0mm
00:09 49.8 °F /  9.9 °C 43.7 °F /  6.5 °C 30.1in /  1019.2hPa SSE 1mph /  1.6km/h   79% 0in /  0.0mm
00:14 49.6 °F /  9.8 °C 43.5 °F /  6.4 °C 30.1in /  1019.2hPa Calm     79% 0in /  0.0mm
00:19 49.6 °F /  9.8 °C 43.3 °F /  6.3 °C 30.1in /  1019.2hPa Calm     79% 0in /  0.0mm
00:24 49.5 °F /  9.7 °C 43.2 °F /  6.2 °C 30.1in /  1019.1hPa Calm     79% 0in /  0.0mm
00:29 49.3 °F /  9.6 °C 43.3 °F /  6.3 °C 30.1in /  1019.1hPa Calm     79.9% 0in /  0.0mm
00:34 49.1 °F /  9.5 °C 43.2 °F /  6.2 °C 30.1in /  1019.2hPa Calm     80% 0in /  0.0mm
00:39 48.9 °F /  9.4 °C 43.2 °F /  6.2 °C 30.1in /  1019.2hPa Calm     80.6% 0in /  0.0mm
00:44 48.7 °F /  9.3 °C 43.2 °F /  6.2 °C 30.1in /  1019.2hPa Calm   1.8mph /  2.9km/h 81% 0in /  0.0mm
00:49 48.7 °F /  9.3 °C 43.2 °F /  6.2 °C 30.1in /  1019.2hPa Calm   2.3mph /  3.7km/h 80.7% 0in /  0.0mm
00:54 48.7 °F /  9.3 °C 42.8 °F /  6 °C 30.1in /  1019.1hPa Calm   2.3mph /  3.7km/h 80% 0in /  0.0mm
00:59 48.6 °F /  9.2 °C 42.3 °F /  5.7 °C 30.1in /  1019.1hPa Calm   2.9mph /  4.7km/h 79% 0in /  0.0mm
01:04 48.4 °F /  9.1 °C 42.3 °F /  5.7 °C 30.1in /  1019.1hPa Calm   3.6mph /  5.8km/h 79% 0in /  0.0mm
01:09 48.4 °F /  9.1 °C 42.3 °F /  5.7 °C 30.1in /  1019.1hPa SSE 1.2mph /  1.9km/h 4mph /  6.4km/h 79% 0in /  0.0mm
01:14 48.2 °F /  9 °C 42.1 °F /  5.6 °C 30.1in /  1019.1hPa SSE 2mph /  3.2km/h 3mph /  4.8km/h 79.1% 0in /  0.0mm
01:19 48 °F /  8.9 °C 42.1 °F /  5.6 °C 30.1in /  1019.1hPa SSE 1.6mph /  2.6km/h 2.4mph /  3.9km/h 79.4% 0in /  0.0mm
01:24 48 °F /  8.9 °C 42.1 °F /  5.6 °C 30.1in /  1019.0hPa SSE 1.4mph /  2.2km/h 2.9mph /  4.7km/h 79.7% 0in /  0.0mm
01:29 47.8 °F /  8.8 °C 42.1 °F /  5.6 °C 30.1in /  1019.0hPa SSE 0.6mph /  0.9km/h 3mph /  4.8km/h 80% 0in /  0.0mm
01:34 47.7 °F /  8.7 °C 41.9 °F /  5.5 °C 30.1in /  1019.1hPa Calm   2.9mph /  4.7km/h 80% 0in /  0.0mm
01:39 47.7 °F /  8.7 °C 41.7 °F /  5.4 °C 30.1in /  1019.1hPa Calm   3mph /  4.8km/h 80% 0in /  0.0mm
01:44 47.5 °F /  8.6 °C 41.5 °F /  5.3 °C 30.1in /  1019.1hPa Calm   4.3mph /  6.9km/h 79.8% 0in /  0.0mm
01:49 47.3 °F /  8.5 °C 41 °F /  5 °C 30.1in /  1019.3hPa SSE 1.1mph /  1.7km/h 5mph /  8km/h 79% 0in /  0.0mm
01:54 47.1 °F /  8.4 °C 40.8 °F /  4.9 °C 30.1in /  1019.3hPa SSE 1.8mph /  2.9km/h 5mph /  8km/h 79% 0in /  0.0mm
01:59 46.9 °F /  8.3 °C 40.5 °F /  4.7 °C 30.1in /  1019.3hPa Sur 2.2mph /  3.5km/h 5.8mph /  9.3km/h 78.2% 0in /  0.0mm
02:04 46.8 °F /  8.2 °C 40.3 °F /  4.6 °C 30.1in /  1019.3hPa Sur 2.4mph /  3.9km/h 6mph /  9.7km/h 78% 0in /  0.0mm
02:09 46.6 °F /  8.1 °C 40.1 °F /  4.5 °C 30.1in /  1019.2hPa Sur 3.1mph /  5km/h 6mph /  9.7km/h 78% 0in /  0.0mm
02:14 46.6 °F /  8.1 °C 39.9 °F /  4.4 °C 30.1in /  1019.2hPa Sur 3.6mph /  5.8km/h 5mph /  8km/h 77.2% 0in /  0.0mm
02:19 46.6 °F /  8.1 °C 39.7 °F /  4.3 °C 30.1in /  1019.3hPa Sur 3.2mph /  5.1km/h 5mph /  8km/h 77% 0in /  0.0mm
02:24 46.6 °F /  8.1 °C 39.4 °F /  4.1 °C 30.1in /  1019.3hPa Sur 2.9mph /  4.6km/h 5mph /  8km/h 76.2% 0in /  0.0mm
02:29 46.6 °F /  8.1 °C 39.4 °F /  4.1 °C 30.1in /  1019.3hPa Sur 2.9mph /  4.7km/h 5mph /  8km/h 76% 0in /  0.0mm
02:34 46.6 °F /  8.1 °C 39.4 °F /  4.1 °C 30.1in /  1019.3hPa Sur 2.9mph /  4.6km/h 5mph /  8km/h 76% 0in /  0.0mm
02:39 46.6 °F /  8.1 °C 39.4 °F /  4.1 °C 30.1in /  1019.3hPa Sur 2.9mph /  4.7km/h 5mph /  8km/h 76% 0in /  0.0mm
02:44 46.2 °F /  7.9 °C 39.2 °F /  4 °C 30.1in /  1019.3hPa Sur 2.9mph /  4.7km/h 5mph /  8km/h 76.1% 0in /  0.0mm
02:49 46 °F /  7.8 °C 39.2 °F /  4 °C 30.1in /  1019.4hPa Sur 2.9mph /  4.6km/h 5mph /  8km/h 77% 0in /  0.0mm
02:54 45.9 °F /  7.7 °C 39.2 °F /  4 °C 30.1in /  1019.4hPa Sur 2.9mph /  4.7km/h 5mph /  8km/h 77.8% 0in /  0.0mm
02:59 45.7 °F /  7.6 °C 39.2 °F /  4 °C 30.1in /  1019.4hPa Sur 3mph /  4.9km/h 5.2mph /  8.4km/h 78% 0in /  0.0mm
03:04 45.5 °F /  7.5 °C 39 °F /  3.9 °C 30.1in /  1019.5hPa Sur 3.1mph /  5km/h 5.2mph /  8.4km/h 78% 0in /  0.0mm
03:09 45.3 °F /  7.4 °C 38.8 °F /  3.8 °C 30.1in /  1019.5hPa Sur 3.4mph /  5.4km/h 6.2mph /  10km/h 78% 0in /  0.0mm
03:14 45.1 °F /  7.3 °C 38.8 °F /  3.8 °C 30.1in /  1019.5hPa SSE 3.6mph /  5.8km/h 6.4mph /  10.3km/h 78% 0in /  0.0mm
03:19 45 °F /  7.2 °C 38.7 °F /  3.7 °C 30.1in /  1019.5hPa SSE 3.9mph /  6.2km/h 7mph /  11.3km/h 78% 0in /  0.0mm
03:24 45 °F /  7.2 °C 38.5 °F /  3.6 °C 30.1in /  1019.5hPa SSE 4mph /  6.5km/h 6mph /  9.7km/h 78% 0in /  0.0mm
03:29 44.8 °F /  7.1 °C 38.3 °F /  3.5 °C 30.1in /  1019.5hPa Sur 4mph /  6.5km/h 6mph /  9.7km/h 78% 0in /  0.0mm
03:34 44.8 °F /  7.1 °C 38.3 °F /  3.5 °C 30.1in /  1019.5hPa Sur 4mph /  6.5km/h 6mph /  9.7km/h 78% 0in /  0.0mm
03:39 44.8 °F /  7.1 °C 38.3 °F /  3.5 °C 30.1in /  1019.5hPa Sur 3.5mph /  5.6km/h 5.9mph /  9.5km/h 78% 0in /  0.0mm
03:44 44.6 °F /  7 °C 37.9 °F /  3.3 °C 30.1in /  1019.5hPa Sur 3.1mph /  5km/h 6.9mph /  11.1km/h 77.2% 0in /  0.0mm
03:49 44.6 °F /  7 °C 37.8 °F /  3.2 °C 30.1in /  1019.6hPa Sur 3.8mph /  6.1km/h 7mph /  11.3km/h 77% 0in /  0.0mm
03:59 44.4 °F /  6.9 °C 37.8 °F /  3.2 °C 30.1in /  1019.6hPa Sur 4.3mph /  6.9km/h 5.8mph /  9.3km/h 77% 0in /  0.0mm
04:04 44.4 °F /  6.9 °C 37.8 °F /  3.2 °C 30.1in /  1019.6hPa SSE 4.3mph /  6.9km/h 6.4mph /  10.3km/h 77% 0in /  0.0mm
04:09 44.2 °F /  6.8 °C 37.6 °F /  3.1 °C 30.1in /  1019.6hPa SSE 4.5mph /  7.3km/h 7mph /  11.3km/h 77% 0in /  0.0mm
04:14 44.2 °F /  6.8 °C 37.8 °F /  3.2 °C 30.1in /  1019.6hPa Sur 4.7mph /  7.6km/h 6.9mph /  11.1km/h 78% 0in /  0.0mm
04:19 44.1 °F /  6.7 °C 37.6 °F /  3.1 °C 30.1in /  1019.6hPa Sur 4.7mph /  7.6km/h 6.9mph /  11.1km/h 78% 0in /  0.0mm
04:24 44.1 °F /  6.7 °C 37.6 °F /  3.1 °C 30.1in /  1019.6hPa Sur 4.7mph /  7.6km/h 8.1mph /  13km/h 78% 0in /  0.0mm
04:29 44.1 °F /  6.7 °C 37.6 °F /  3.1 °C 30.1in /  1019.6hPa Sur 5mph /  8.1km/h 8.1mph /  13km/h 78% 0in /  0.0mm
04:34 44.1 °F /  6.7 °C 37.4 °F /  3 °C 30.1in /  1019.6hPa Sur 5.2mph /  8.4km/h 8mph /  12.9km/h 77.5% 0in /  0.0mm
04:39 44.1 °F /  6.7 °C 37.2 °F /  2.9 °C 30.1in /  1019.5hPa Sur 4.9mph /  7.9km/h 7mph /  11.3km/h 77% 0in /  0.0mm
04:44 44.1 °F /  6.7 °C 37.2 °F /  2.9 °C 30.1in /  1019.5hPa Sur 4.7mph /  7.6km/h 7mph /  11.3km/h 77% 0in /  0.0mm
04:49 43.9 °F /  6.6 °C 37 °F /  2.8 °C 30.1in /  1019.5hPa SSE 4.7mph /  7.6km/h 6.9mph /  11.1km/h 77% 0in /  0.0mm
04:54 43.7 °F /  6.5 °C 37 °F /  2.8 °C 30.1in /  1019.3hPa SSE 4.7mph /  7.6km/h 8.1mph /  13km/h 77% 0in /  0.0mm
04:59 43.3 °F /  6.3 °C 36.7 °F /  2.6 °C 30.1in /  1019.3hPa SSE 5mph /  8.1km/h 9.2mph /  14.8km/h 77.5% 0in /  0.0mm
05:04 42.8 °F /  6 °C 36.5 °F /  2.5 °C 30.1in /  1019.3hPa Sur 5.2mph /  8.4km/h 9.2mph /  14.8km/h 78% 0in /  0.0mm
05:09 42.6 °F /  5.9 °C 36.5 °F /  2.5 °C 30.1in /  1019.3hPa Sur 5.6mph /  9km/h 9mph /  14.5km/h 78.8% 0in /  0.0mm
05:14 42.4 °F /  5.8 °C 36.3 °F /  2.4 °C 30.1in /  1019.3hPa Sur 5.9mph /  9.5km/h 8mph /  12.9km/h 79% 0in /  0.0mm
05:19 42.4 °F /  5.8 °C 36.3 °F /  2.4 °C 30.1in /  1019.3hPa Sur 5.5mph /  8.8km/h 8.1mph /  13km/h 79% 0in /  0.0mm
05:24 42.4 °F /  5.8 °C 36.3 °F /  2.4 °C 30.1in /  1019.2hPa SSE 5.2mph /  8.4km/h 8.1mph /  13km/h 79% 0in /  0.0mm
05:29 42.4 °F /  5.8 °C 36.3 °F /  2.4 °C 30.1in /  1019.2hPa SSE 5.2mph /  8.4km/h 8mph /  12.9km/h 79% 0in /  0.0mm
05:34 42.4 °F /  5.8 °C 36.3 °F /  2.4 °C 30.1in /  1019.2hPa Sur 5.2mph /  8.4km/h 7mph /  11.3km/h 79% 0in /  0.0mm
05:39 42.4 °F /  5.8 °C 36.3 °F /  2.4 °C 30.1in /  1019.2hPa Sur 4.7mph /  7.5km/h 7.4mph /  11.9km/h 79% 0in /  0.0mm
05:44 42.3 °F /  5.7 °C 36.1 °F /  2.3 °C 30.1in /  1019.2hPa Sur 4.3mph /  6.9km/h 7mph /  11.3km/h 79% 0in /  0.0mm
05:49 42.3 °F /  5.7 °C 36.1 °F /  2.3 °C 30.1in /  1019.4hPa Sur 4.5mph /  7.3km/h 7mph /  11.3km/h 79% 0in /  0.0mm
05:54 42.1 °F /  5.6 °C 36 °F /  2.2 °C 30.1in /  1019.4hPa Sur 4.7mph /  7.6km/h 7.4mph /  11.9km/h 78.7% 0in /  0.0mm
05:59 42.3 °F /  5.7 °C 35.8 °F /  2.1 °C 30.1in /  1019.4hPa Sur 4.7mph /  7.6km/h 9.2mph /  14.8km/h 77.7% 0in /  0.0mm
06:04 42.3 °F /  5.7 °C 35.6 °F /  2 °C 30.1in /  1019.4hPa Sur 4.7mph /  7.6km/h 9mph /  14.5km/h 77% 0in /  0.0mm
06:09 42.4 °F /  5.8 °C 35.4 °F /  1.9 °C 30.1in /  1019.4hPa Sur 4.7mph /  7.6km/h 8mph /  12.9km/h 76.4% 0in /  0.0mm
06:14 42.4 °F /  5.8 °C 35.4 °F /  1.9 °C 30.1in /  1019.4hPa Sur 4.7mph /  7.6km/h 8.1mph /  13km/h 76% 0in /  0.0mm
06:19 42.6 °F /  5.9 °C 35.4 °F /  1.9 °C 30.1in /  1019.5hPa SSO 4.7mph /  7.6km/h 9.2mph /  14.8km/h 75.7% 0in /  0.0mm
06:24 42.6 °F /  5.9 °C 35.2 °F /  1.8 °C 30.1in /  1019.5hPa SSO 4.7mph /  7.6km/h 9.2mph /  14.8km/h 75% 0in /  0.0mm
06:29 42.8 °F /  6 °C 35.2 °F /  1.8 °C 30.1in /  1019.5hPa SSO 5.1mph /  8.2km/h 9mph /  14.5km/h 74.9% 0in /  0.0mm
06:34 43 °F /  6.1 °C 35.2 °F /  1.8 °C 30.1in /  1019.6hPa SSO 5.4mph /  8.7km/h 7.4mph /  11.9km/h 74% 0in /  0.0mm
06:39 43.2 °F /  6.2 °C 35.4 °F /  1.9 °C 30.1in /  1019.6hPa SSO 5.4mph /  8.7km/h 8.1mph /  13km/h 74% 0in /  0.0mm
06:44 43.2 °F /  6.2 °C 35.4 °F /  1.9 °C 30.1in /  1019.6hPa SSO 5.4mph /  8.7km/h 8mph /  12.9km/h 74% 0in /  0.0mm
06:49 43.3 °F /  6.3 °C 35.6 °F /  2 °C 30.1in /  1019.8hPa Sur 5.3mph /  8.5km/h 7mph /  11.3km/h 74% 0in /  0.0mm
06:54 43.2 °F /  6.2 °C 35.4 °F /  1.9 °C 30.1in /  1019.8hPa Sur 5.2mph /  8.4km/h 8.1mph /  13km/h 74% 0in /  0.0mm
06:59 43.2 °F /  6.2 °C 35.8 °F /  2.1 °C 30.1in /  1019.8hPa Sur 5.2mph /  8.4km/h 8.1mph /  13km/h 74.8% 0in /  0.0mm
07:04 43.2 °F /  6.2 °C 35.8 °F /  2.1 °C 30.1in /  1020.0hPa Sur 5.2mph /  8.4km/h 8.1mph /  13km/h 75% 0in /  0.0mm
07:09 43 °F /  6.1 °C 35.6 °F /  2 °C 30.1in /  1020.0hPa Sur 5.2mph /  8.4km/h 8mph /  12.9km/h 75% 0in /  0.0mm
07:14 42.6 °F /  5.9 °C 35.4 °F /  1.9 °C 30.1in /  1020.0hPa Sur 5.2mph /  8.4km/h 7mph /  11.3km/h 75.3% 0in /  0.0mm
07:19 42.6 °F /  5.9 °C 35.6 °F /  2 °C 30.1in /  1020.1hPa Sur 4.7mph /  7.5km/h 7mph /  11.3km/h 76% 0in /  0.0mm
07:24 42.6 °F /  5.9 °C 35.6 °F /  2 °C 30.1in /  1020.1hPa Sur 4.3mph /  6.9km/h 6.2mph /  10km/h 76% 0in /  0.0mm
07:29 42.6 °F /  5.9 °C 35.6 °F /  2 °C 30.1in /  1020.1hPa Sur 4.1mph /  6.6km/h 6.2mph /  10km/h 76% 0in /  0.0mm
07:34 42.6 °F /  5.9 °C 35.6 °F /  2 °C 30.1in /  1020.2hPa Sur 4mph /  6.5km/h 7.4mph /  11.9km/h 76% 0in /  0.0mm
07:39 42.4 °F /  5.8 °C 35.4 °F /  1.9 °C 30.1in /  1020.2hPa Sur 4.4mph /  7.1km/h 8.1mph /  13km/h 76% 0in /  0.0mm
07:44 42.4 °F /  5.8 °C 35.6 °F /  2 °C 30.1in /  1020.2hPa Sur 4.7mph /  7.6km/h 8.7mph /  14km/h 76.5% 0in /  0.0mm
07:49 42.3 °F /  5.7 °C 35.6 °F /  2 °C 30.1in /  1020.3hPa Sur 5.4mph /  8.7km/h 9.2mph /  14.8km/h 77% 0in /  0.0mm
07:54 42.3 °F /  5.7 °C 35.6 °F /  2 °C 30.1in /  1020.3hPa Sur 5.9mph /  9.5km/h 8.1mph /  13km/h 77% 0in /  0.0mm
07:59 42.1 °F /  5.6 °C 35.4 °F /  1.9 °C 30.1in /  1020.3hPa Sur 5.4mph /  8.7km/h 8.1mph /  13km/h 77% 0in /  0.0mm
08:04 42.1 °F /  5.6 °C 35.4 °F /  1.9 °C 30.1in /  1020.3hPa Sur 5.2mph /  8.4km/h 8.1mph /  13km/h 77% 0in /  0.0mm
08:09 41.9 °F /  5.5 °C 35.2 °F /  1.8 °C 30.1in /  1020.3hPa Sur 5.3mph /  8.6km/h 8.5mph /  13.7km/h 77% 0in /  0.0mm
08:14 41.7 °F /  5.4 °C 35.1 °F /  1.7 °C 30.1in /  1020.3hPa Sur 5.4mph /  8.7km/h 9mph /  14.5km/h 77% 0in /  0.0mm
08:19 41.7 °F /  5.4 °C 35.1 °F /  1.7 °C 30.1in /  1020.4hPa Sur 5.4mph /  8.7km/h 8.1mph /  13km/h 77% 0in /  0.0mm
08:24 41.5 °F /  5.3 °C 34.9 °F /  1.6 °C 30.1in /  1020.4hPa Sur 5.4mph /  8.7km/h 8.1mph /  13km/h 77% 0in /  0.0mm
08:29 41.5 °F /  5.3 °C 34.9 °F /  1.6 °C 30.1in /  1020.4hPa SSO 5.7mph /  9.2km/h 8.1mph /  13km/h 77% 0in /  0.0mm
08:34 41.5 °F /  5.3 °C 34.9 °F /  1.6 °C 30.1in /  1020.5hPa Sur 5.9mph /  9.5km/h 8.7mph /  14km/h 77% 0in /  0.0mm
08:39 41.5 °F /  5.3 °C 34.7 °F /  1.5 °C 30.1in /  1020.5hPa Sur 5.9mph /  9.5km/h 9mph /  14.5km/h 76.4% 0in /  0.0mm
08:44 41.5 °F /  5.3 °C 34.5 °F /  1.4 °C 30.1in /  1020.5hPa Sur 5.9mph /  9.5km/h 8.1mph /  13km/h 76% 0in /  0.0mm
08:49 41.5 °F /  5.3 °C 34.5 °F /  1.4 °C 30.1in /  1020.7hPa Sur 5.5mph /  8.8km/h 8mph /  12.9km/h 76% 0in /  0.0mm
08:54 41.7 °F /  5.4 °C 34.5 °F /  1.4 °C 30.1in /  1020.7hPa Sur 5.2mph /  8.4km/h 8.5mph /  13.7km/h 75.3% 0in /  0.0mm
08:59 41.9 °F /  5.5 °C 34.5 °F /  1.4 °C 30.1in /  1020.7hPa Sur 5.3mph /  8.6km/h 9mph /  14.5km/h 75% 0in /  0.0mm
09:04 42.3 °F /  5.7 °C 34.9 °F /  1.6 °C 30.1in /  1020.7hPa Sur 5.4mph /  8.7km/h 9.2mph /  14.8km/h 75% 0in /  0.0mm
09:09 42.4 °F /  5.8 °C 35.1 °F /  1.7 °C 30.1in /  1020.7hPa Sur 5.7mph /  9.2km/h 9mph /  14.5km/h 75% 0in /  0.0mm
09:14 42.6 °F /  5.9 °C 35.2 °F /  1.8 °C 30.1in /  1020.7hPa Sur 5.9mph /  9.5km/h 9mph /  14.5km/h 75% 0in /  0.0mm
09:19 43 °F /  6.1 °C 35.6 °F /  2 °C 30.1in /  1020.8hPa Sur 5.5mph /  8.9km/h 9.2mph /  14.8km/h 74.8% 0in /  0.0mm
09:24 43.2 °F /  6.2 °C 35.4 °F /  1.9 °C 30.1in /  1020.8hPa Sur 5.2mph /  8.4km/h 9.2mph /  14.8km/h 73.9% 0in /  0.0mm
09:29 43.3 °F /  6.3 °C 35.2 °F /  1.8 °C 30.1in /  1020.8hPa Sur 5.8mph /  9.3km/h 9.2mph /  14.8km/h 72.9% 0in /  0.0mm
09:34 43.5 °F /  6.4 °C 35.1 °F /  1.7 °C 30.2in /  1021.0hPa Sur 6.2mph /  10km/h 9mph /  14.5km/h 72% 0in /  0.0mm
09:39 43.9 °F /  6.6 °C 35.2 °F /  1.8 °C 30.2in /  1021.0hPa Sur 6mph /  9.7km/h 8.1mph /  13km/h 71.3% 0in /  0.0mm
09:44 44.1 °F /  6.7 °C 35.2 °F /  1.8 °C 30.2in /  1021.0hPa Sur 5.9mph /  9.5km/h 9.2mph /  14.8km/h 70.8% 0in /  0.0mm
09:49 44.4 °F /  6.9 °C 35.2 °F /  1.8 °C 30.2in /  1021.2hPa Sur 5.6mph /  9km/h 9.2mph /  14.8km/h 70% 0in /  0.0mm
09:54 44.8 °F /  7.1 °C 35.2 °F /  1.8 °C 30.2in /  1021.2hPa Sur 5.4mph /  8.7km/h 9mph /  14.5km/h 69.4% 0in /  0.0mm
09:59 45 °F /  7.2 °C 35.2 °F /  1.8 °C 30.2in /  1021.2hPa Sur 5.3mph /  8.5km/h 8.1mph /  13km/h 68.4% 0in /  0.0mm
10:04 45.3 °F /  7.4 °C 35.1 °F /  1.7 °C 30.2in /  1021.3hPa Sur 5.2mph /  8.4km/h 8.1mph /  13km/h 67.2% 0in /  0.0mm
10:09 45.9 °F /  7.7 °C 35.1 °F /  1.7 °C 30.2in /  1021.3hPa SSO 4.9mph /  7.9km/h 8mph /  12.9km/h 66.1% 0in /  0.0mm
10:14 46.2 °F /  7.9 °C 35.2 °F /  1.8 °C 30.2in /  1021.3hPa SSO 4.7mph /  7.6km/h 7mph /  11.3km/h 65% 0in /  0.0mm
10:19 46.8 °F /  8.2 °C 35.1 °F /  1.7 °C 30.2in /  1021.6hPa SSO 4.3mph /  6.9km/h 7mph /  11.3km/h 63.6% 0in /  0.0mm
10:24 47.1 °F /  8.4 °C 35.2 °F /  1.8 °C 30.2in /  1021.6hPa SSO 4mph /  6.5km/h 8.1mph /  13km/h 63% 0in /  0.0mm
10:29 47.5 °F /  8.6 °C 35.2 °F /  1.8 °C 30.2in /  1021.6hPa SSO 4.4mph /  7.1km/h 8mph /  12.9km/h 62.1% 0in /  0.0mm
10:34 47.8 °F /  8.8 °C 35.1 °F /  1.7 °C 30.2in /  1021.7hPa Sur 4.7mph /  7.6km/h 7.6mph /  12.2km/h 61.2% 0in /  0.0mm
10:39 47.8 °F /  8.8 °C 34.9 °F /  1.6 °C 30.2in /  1021.7hPa SSO 5mph /  8km/h 8.1mph /  13km/h 60.9% 0in /  0.0mm
10:44 48.2 °F /  9 °C 35.1 °F /  1.7 °C 30.2in /  1021.7hPa SSO 5.2mph /  8.4km/h 8mph /  12.9km/h 60.6% 0in /  0.0mm
10:49 48.6 °F /  9.2 °C 35.1 °F /  1.7 °C 30.2in /  1021.8hPa Sur 4.9mph /  7.9km/h 7.4mph /  11.9km/h 59.2% 0in /  0.0mm
10:54 48.9 °F /  9.4 °C 35.1 °F /  1.7 °C 30.2in /  1021.8hPa Sur 4.7mph /  7.6km/h 7mph /  11.3km/h 58.4% 0in /  0.0mm
10:59 49.5 °F /  9.7 °C 35.1 °F /  1.7 °C 30.2in /  1021.8hPa Sur 4.5mph /  7.2km/h 7mph /  11.3km/h 57.5% 0in /  0.0mm
11:04 49.6 °F /  9.8 °C 35.4 °F /  1.9 °C 30.2in /  1021.8hPa SSO 4.3mph /  6.9km/h 7mph /  11.3km/h 57.6% 0in /  0.0mm
11:09 50.2 °F /  10.1 °C 35.2 °F /  1.8 °C 30.2in /  1021.8hPa Sur 4.1mph /  6.6km/h 6.9mph /  11.1km/h 56.5% 0in /  0.0mm
11:14 50.5 °F /  10.3 °C 35.2 °F /  1.8 °C 30.2in /  1021.8hPa Sur 4mph /  6.5km/h 7mph /  11.3km/h 56% 0in /  0.0mm
11:19 50.7 °F /  10.4 °C 35.6 °F /  2 °C 30.2in /  1021.8hPa Sur 4mph /  6.5km/h 6mph /  9.7km/h 55.9% 0in /  0.0mm
11:24 51.4 °F /  10.8 °C 36 °F /  2.2 °C 30.2in /  1021.8hPa Sur 4mph /  6.5km/h 6mph /  9.7km/h 55.2% 0in /  0.0mm
11:29 52 °F /  11.1 °C 36.1 °F /  2.3 °C 30.2in /  1021.8hPa Sur 3.8mph /  6.1km/h 6mph /  9.7km/h 54.6% 0in /  0.0mm
11:34 52.2 °F /  11.2 °C 36.3 °F /  2.4 °C 30.2in /  1021.8hPa Sur 3.6mph /  5.8km/h 6mph /  9.7km/h 54.7% 0in /  0.0mm
11:39 52.5 °F /  11.4 °C 36.3 °F /  2.4 °C 30.2in /  1021.7hPa Sur 3.6mph /  5.8km/h 6mph /  9.7km/h 54% 0in /  0.0mm
11:44 52.9 °F /  11.6 °C 36.5 °F /  2.5 °C 30.2in /  1021.7hPa Sur 3.6mph /  5.8km/h 6.2mph /  10km/h 53.7% 0in /  0.0mm
11:49 53.1 °F /  11.7 °C 36.3 °F /  2.4 °C 30.2in /  1021.7hPa SSO 3.6mph /  5.8km/h 6.9mph /  11.1km/h 52.9% 0in /  0.0mm
11:54 53.4 °F /  11.9 °C 36.3 °F /  2.4 °C 30.2in /  1021.6hPa Sur 3.6mph /  5.8km/h 7mph /  11.3km/h 52.3% 0in /  0.0mm
11:59 53.8 °F /  12.1 °C 36.5 °F /  2.5 °C 30.2in /  1021.6hPa Sur 3.6mph /  5.8km/h 6.2mph /  10km/h 52% 0in /  0.0mm
12:04 54 °F /  12.2 °C 36.5 °F /  2.5 °C 30.2in /  1021.6hPa SSO 3.6mph /  5.8km/h 6.2mph /  10km/h 51.4% 0in /  0.0mm
12:09 54.1 °F /  12.3 °C 36.3 °F /  2.4 °C 30.2in /  1021.5hPa Sur 3.6mph /  5.8km/h 6mph /  9.7km/h 51% 0in /  0.0mm
12:14 54.3 °F /  12.4 °C 36.5 °F /  2.5 °C 30.2in /  1021.5hPa Sur 3.6mph /  5.8km/h 6.2mph /  10km/h 51% 0in /  0.0mm
12:19 54.9 °F /  12.7 °C 36.7 °F /  2.6 °C 30.2in /  1021.5hPa SSO 3.3mph /  5.3km/h 6.4mph /  10.3km/h 50% 0in /  0.0mm
12:24 55 °F /  12.8 °C 36.3 °F /  2.4 °C 30.2in /  1021.3hPa SO 3.1mph /  5km/h 6mph /  9.7km/h 49% 0in /  0.0mm
12:29 55.2 °F /  12.9 °C 36.3 °F /  2.4 °C 30.2in /  1021.3hPa SO 3mph /  4.8km/h 6.9mph /  11.1km/h 49% 0in /  0.0mm
12:34 55.6 °F /  13.1 °C 36.7 °F /  2.6 °C 30.2in /  1021.3hPa Sur 2.9mph /  4.7km/h 7mph /  11.3km/h 49% 0in /  0.0mm
12:39 55.9 °F /  13.3 °C 37 °F /  2.8 °C 30.2in /  1021.0hPa Este 2.6mph /  4.2km/h 5.9mph /  9.5km/h 48.8% 0in /  0.0mm
12:44 56.5 °F /  13.6 °C 37 °F /  2.8 °C 30.2in /  1021.0hPa SSO 2.4mph /  3.9km/h 6mph /  9.7km/h 48.1% 0in /  0.0mm
12:49 56.8 °F /  13.8 °C 37.8 °F /  3.2 °C 30.2in /  1021.0hPa SSO 2.1mph /  3.3km/h 5mph /  8km/h 49% 0in /  0.0mm
12:54 57.4 °F /  14.1 °C 38.3 °F /  3.5 °C 30.1in /  1020.8hPa SSO 1.8mph /  2.9km/h 5mph /  8km/h 49% 0in /  0.0mm
12:59 57.9 °F /  14.4 °C 38.7 °F /  3.7 °C 30.1in /  1020.8hPa SSO 1.6mph /  2.5km/h 3mph /  4.8km/h 48.4% 0in /  0.0mm
13:04 58.6 °F /  14.8 °C 39.2 °F /  4 °C 30.1in /  1020.8hPa SSO 1.4mph /  2.2km/h 2.4mph /  3.9km/h 48.4% 0in /  0.0mm
13:09 59.2 °F /  15.1 °C 40.3 °F /  4.6 °C 30.1in /  1020.5hPa SSO 0.6mph /  0.9km/h 4.6mph /  7.4km/h 49.6% 0in /  0.0mm
13:14 59.4 °F /  15.2 °C 41 °F /  5 °C 30.1in /  1020.5hPa Calm   5mph /  8km/h 50.6% 0in /  0.0mm
13:19 59.5 °F /  15.3 °C 43.2 °F /  6.2 °C 30.1in /  1020.5hPa NE 1.2mph /  1.9km/h 5mph /  8km/h 54.9% 0in /  0.0mm
13:24 59.7 °F /  15.4 °C 44.8 °F /  7.1 °C 30.1in /  1020.3hPa NE 2mph /  3.2km/h 5.8mph /  9.3km/h 57.7% 0in /  0.0mm
13:29 59.7 °F /  15.4 °C 45 °F /  7.2 °C 30.1in /  1020.3hPa North 2.2mph /  3.6km/h 6mph /  9.7km/h 58.2% 0in /  0.0mm
13:34 59.5 °F /  15.3 °C 45.3 °F /  7.4 °C 30.1in /  1020.3hPa NE 2.4mph /  3.9km/h 8.1mph /  13km/h 59% 0in /  0.0mm
13:39 59.7 °F /  15.4 °C 45.7 °F /  7.6 °C 30.1in /  1020.0hPa NE 2.8mph /  4.5km/h 8mph /  12.9km/h 59.7% 0in /  0.0mm
13:44 59.9 °F /  15.5 °C 46.6 °F /  8.1 °C 30.1in /  1020.0hPa NE 3.1mph /  5km/h 8.1mph /  13km/h 61.5% 0in /  0.0mm
13:49 60.1 °F /  15.6 °C 46.9 °F /  8.3 °C 30.1in /  1020.0hPa NE 3.6mph /  5.8km/h 8.1mph /  13km/h 61.9% 0in /  0.0mm
13:54 60.1 °F /  15.6 °C 46.4 °F /  8 °C 30.1in /  1019.8hPa NE 4mph /  6.5km/h 8.1mph /  13km/h 60.5% 0in /  0.0mm
13:59 60.3 °F /  15.7 °C 46.4 °F /  8 °C 30.1in /  1019.8hPa NE 4mph /  6.5km/h 9.7mph /  15.6km/h 60.2% 0in /  0.0mm
14:04 60.4 °F /  15.8 °C 46.4 °F /  8 °C 30.1in /  1019.8hPa NNE 4mph /  6.5km/h 10mph /  16.1km/h 60% 0in /  0.0mm
14:09 60.4 °F /  15.8 °C 46.6 °F /  8.1 °C 30.1in /  1019.6hPa NE 4.7mph /  7.6km/h 9mph /  14.5km/h 60% 0in /  0.0mm
14:14 60.6 °F /  15.9 °C 46.6 °F /  8.1 °C 30.1in /  1019.6hPa ENE 5.2mph /  8.4km/h 9.2mph /  14.8km/h 59.7% 0in /  0.0mm
14:19 60.6 °F /  15.9 °C 46.2 °F /  7.9 °C 30.1in /  1019.6hPa NE 5.3mph /  8.6km/h 10.4mph /  16.7km/h 59% 0in /  0.0mm
14:24 60.6 °F /  15.9 °C 46.2 °F /  7.9 °C 30.1in /  1019.5hPa NE 5.4mph /  8.7km/h 10.4mph /  16.7km/h 59% 0in /  0.0mm
14:29 60.8 °F /  16 °C 46.2 °F /  7.9 °C 30.1in /  1019.5hPa NE 5.3mph /  8.5km/h 10mph /  16.1km/h 58.5% 0in /  0.0mm
14:34 61 °F /  16.1 °C 46.2 °F /  7.9 °C 30.1in /  1019.5hPa ENE 5.2mph /  8.4km/h 10mph /  16.1km/h 58.1% 0in /  0.0mm
14:39 61.2 °F /  16.2 °C 46.2 °F /  7.9 °C 30.1in /  1019.3hPa ENE 5.3mph /  8.6km/h 10mph /  16.1km/h 58% 0in /  0.0mm
14:44 61.2 °F /  16.2 °C 46.2 °F /  7.9 °C 30.1in /  1019.3hPa ENE 5.4mph /  8.7km/h 10.4mph /  16.7km/h 57.8% 0in /  0.0mm
14:49 61.2 °F /  16.2 °C 45.9 °F /  7.7 °C 30.1in /  1019.3hPa NE 5.4mph /  8.7km/h 10.4mph /  16.7km/h 57.1% 0in /  0.0mm
14:54 61.3 °F /  16.3 °C 45.7 °F /  7.6 °C 30.1in /  1019.3hPa NE 5.4mph /  8.7km/h 10.7mph /  17.2km/h 56.7% 0in /  0.0mm
14:59 61.3 °F /  16.3 °C 46 °F /  7.8 °C 30.1in /  1019.3hPa NE 5mph /  8km/h 11mph /  17.7km/h 56.8% 0in /  0.0mm
15:04 61.5 °F /  16.4 °C 45.7 °F /  7.6 °C 30.1in /  1019.3hPa NE 4.7mph /  7.6km/h 9.7mph /  15.6km/h 56% 0in /  0.0mm
15:09 61.3 °F /  16.3 °C 46 °F /  7.8 °C 30.1in /  1019.2hPa NE 5mph /  8.1km/h 10mph /  16.1km/h 56.9% 0in /  0.0mm
15:14 61.5 °F /  16.4 °C 46.6 °F /  8.1 °C 30.1in /  1019.2hPa NE 5.2mph /  8.4km/h 10mph /  16.1km/h 58% 0in /  0.0mm
15:19 61.5 °F /  16.4 °C 46.6 °F /  8.1 °C 30.1in /  1019.2hPa NE 5.8mph /  9.3km/h 12.7mph /  20.4km/h 58% 0in /  0.0mm
15:24 61.5 °F /  16.4 °C 46.6 °F /  8.1 °C 30.1in /  1019.1hPa NE 6.2mph /  10km/h 13mph /  20.9km/h 58.2% 0in /  0.0mm
15:29 61.5 °F /  16.4 °C 46.6 °F /  8.1 °C 30.1in /  1019.1hPa NE 5.7mph /  9.2km/h 10.7mph /  17.2km/h 58% 0in /  0.0mm
15:34 61.5 °F /  16.4 °C 46.6 °F /  8.1 °C 30.1in /  1019.1hPa Este 5.4mph /  8.7km/h 11mph /  17.7km/h 58% 0in /  0.0mm
15:39 61.5 °F /  16.4 °C 46.6 °F /  8.1 °C 30.1in /  1019.0hPa NE 5mph /  8km/h 9.7mph /  15.6km/h 58% 0in /  0.0mm
15:44 61.5 °F /  16.4 °C 46.6 °F /  8.1 °C 30.1in /  1019.0hPa ENE 4.7mph /  7.6km/h 10mph /  16.1km/h 57.9% 0in /  0.0mm
15:49 61.5 °F /  16.4 °C 46.4 °F /  8 °C 30.1in /  1019.0hPa NNE 4.5mph /  7.2km/h 8mph /  12.9km/h 57.5% 0in /  0.0mm
15:54 61.7 °F /  16.5 °C 46.2 °F /  7.9 °C 30.1in /  1018.9hPa ENE 4.3mph /  6.9km/h 10.2mph /  16.4km/h 57.2% 0in /  0.0mm
15:59 61.7 °F /  16.5 °C 46.2 °F /  7.9 °C 30.1in /  1018.9hPa NNE 4.3mph /  6.9km/h 10.4mph /  16.7km/h 56.9% 0in /  0.0mm
16:04 61.5 °F /  16.4 °C 46 °F /  7.8 °C 30.1in /  1018.9hPa NE 4.3mph /  6.9km/h 10mph /  16.1km/h 56.9% 0in /  0.0mm
16:09 61.5 °F /  16.4 °C 46.4 °F /  8 °C 30.1in /  1018.9hPa NE 4.3mph /  6.9km/h 10mph /  16.1km/h 57.4% 0in /  0.0mm
16:14 61.7 °F /  16.5 °C 46.8 °F /  8.2 °C 30.1in /  1018.9hPa NE 4.3mph /  6.9km/h 9.2mph /  14.8km/h 58% 0in /  0.0mm
16:19 61.9 °F /  16.6 °C 46.9 °F /  8.3 °C 30.1in /  1018.9hPa NE 4.3mph /  6.9km/h 9.2mph /  14.8km/h 58% 0in /  0.0mm
16:24 61.9 °F /  16.6 °C 46.9 °F /  8.3 °C 30.1in /  1018.9hPa NE 4.3mph /  6.9km/h 10.4mph /  16.7km/h 58.1% 0in /  0.0mm
16:29 61.7 °F /  16.5 °C 46.9 °F /  8.3 °C 30.1in /  1018.9hPa NE 4.5mph /  7.3km/h 13.8mph /  22.2km/h 58.2% 0in /  0.0mm
16:34 61.5 °F /  16.4 °C 46.9 °F /  8.3 °C 30.1in /  1018.9hPa NE 4.7mph /  7.6km/h 14mph /  22.5km/h 58.6% 0in /  0.0mm
16:39 61.3 °F /  16.3 °C 46.6 °F /  8.1 °C 30.1in /  1018.9hPa NE 5.6mph /  9km/h 10mph /  16.1km/h 58.3% 0in /  0.0mm
16:44 61.5 °F /  16.4 °C 47.1 °F /  8.4 °C 30.1in /  1018.9hPa NE 6.2mph /  10km/h 9mph /  14.5km/h 59% 0in /  0.0mm
16:49 61.5 °F /  16.4 °C 47.3 °F /  8.5 °C 30.1in /  1018.9hPa ENE 5.3mph /  8.5km/h 8.1mph /  13km/h 59.6% 0in /  0.0mm
16:54 61.3 °F /  16.3 °C 47.5 °F /  8.6 °C 30.1in /  1018.9hPa NE 4.7mph /  7.6km/h 9.7mph /  15.6km/h 60.1% 0in /  0.0mm
16:59 61.3 °F /  16.3 °C 47.7 °F /  8.7 °C 30.1in /  1018.9hPa NE 5.2mph /  8.3km/h 10mph /  16.1km/h 60.8% 0in /  0.0mm
17:04 61.2 °F /  16.2 °C 47.5 °F /  8.6 °C 30.1in /  1018.9hPa ENE 5.4mph /  8.7km/h 9.2mph /  14.8km/h 61% 0in /  0.0mm
17:09 60.8 °F /  16 °C 47.3 °F /  8.5 °C 30.1in /  1018.9hPa NE 5.4mph /  8.7km/h 10.4mph /  16.7km/h 61% 0in /  0.0mm
17:14 60.6 °F /  15.9 °C 47.1 °F /  8.4 °C 30.1in /  1018.9hPa NE 5.4mph /  8.7km/h 10.4mph /  16.7km/h 61% 0in /  0.0mm
17:19 60.4 °F /  15.8 °C 46.9 °F /  8.3 °C 30.1in /  1019.0hPa NE 5.9mph /  9.5km/h 11.5mph /  18.5km/h 61% 0in /  0.0mm
17:24 60.3 °F /  15.7 °C 46.9 °F /  8.3 °C 30.1in /  1019.0hPa NE 6.2mph /  10km/h 12mph /  19.3km/h 61.3% 0in /  0.0mm
17:29 60.3 °F /  15.7 °C 47.1 °F /  8.4 °C 30.1in /  1019.0hPa NE 6.3mph /  10.2km/h 10mph /  16.1km/h 62% 0in /  0.0mm
17:34 60.1 °F /  15.6 °C 47.3 °F /  8.5 °C 30.1in /  1019.0hPa NE 6.4mph /  10.3km/h 9mph /  14.5km/h 62.7% 0in /  0.0mm
17:39 59.7 °F /  15.4 °C 47.1 °F /  8.4 °C 30.1in /  1019.0hPa ENE 5.2mph /  8.3km/h 8.1mph /  13km/h 63% 0in /  0.0mm
17:44 59.5 °F /  15.3 °C 47.1 °F /  8.4 °C 30.1in /  1019.0hPa ENE 4.3mph /  6.9km/h 8.1mph /  13km/h 63.4% 0in /  0.0mm
17:49 59.5 °F /  15.3 °C 47.3 °F /  8.5 °C 30.1in /  1019.0hPa NE 3.9mph /  6.3km/h 6mph /  9.7km/h 64% 0in /  0.0mm
17:54 59.4 °F /  15.2 °C 47.1 °F /  8.4 °C 30.1in /  1019.0hPa NE 3.6mph /  5.8km/h 5.4mph /  8.7km/h 64% 0in /  0.0mm
17:59 59 °F /  15 °C 47.3 °F /  8.5 °C 30.1in /  1019.0hPa NE 3.2mph /  5.2km/h 5.2mph /  8.4km/h 65% 0in /  0.0mm
18:04 58.8 °F /  14.9 °C 47.1 °F /  8.4 °C 30.1in /  1019.1hPa Este 3.1mph /  5km/h 5.4mph /  8.7km/h 65% 0in /  0.0mm
18:09 58.6 °F /  14.8 °C 46.9 °F /  8.3 °C 30.1in /  1019.1hPa Este 3mph /  4.8km/h 6mph /  9.7km/h 65% 0in /  0.0mm
18:14 58.5 °F /  14.7 °C 46.8 °F /  8.2 °C 30.1in /  1019.1hPa Este 2.9mph /  4.7km/h 5mph /  8km/h 65.3% 0in /  0.0mm
18:19 58.3 °F /  14.6 °C 46.9 °F /  8.3 °C 30.1in /  1019.1hPa Este 2.4mph /  3.8km/h 5mph /  8km/h 66% 0in /  0.0mm
18:24 57.9 °F /  14.4 °C 46.6 °F /  8.1 °C 30.1in /  1019.1hPa Este 2mph /  3.2km/h 5mph /  8km/h 66% 0in /  0.0mm
18:29 57.9 °F /  14.4 °C 46.6 °F /  8.1 °C 30.1in /  1019.1hPa Este 2.2mph /  3.6km/h 4.6mph /  7.4km/h 66.2% 0in /  0.0mm
18:34 57.7 °F /  14.3 °C 46.9 °F /  8.3 °C 30.1in /  1019.2hPa Este 2.4mph /  3.9km/h 6.2mph /  10km/h 67.1% 0in /  0.0mm
18:39 57.7 °F /  14.3 °C 47.3 °F /  8.5 °C 30.1in /  1019.2hPa ESE 2.8mph /  4.5km/h 6.2mph /  10km/h 68.4% 0in /  0.0mm
18:44 57.6 °F /  14.2 °C 47.7 °F /  8.7 °C 30.1in /  1019.2hPa Este 3.1mph /  5km/h 6.2mph /  10km/h 69.8% 0in /  0.0mm
18:49 57.2 °F /  14 °C 47.7 °F /  8.7 °C 30.1in /  1019.3hPa Este 3.4mph /  5.5km/h 6mph /  9.7km/h 70.5% 0in /  0.0mm
18:54 56.8 °F /  13.8 °C 47.7 °F /  8.7 °C 30.1in /  1019.3hPa Este 3.6mph /  5.8km/h 5mph /  8km/h 71% 0in /  0.0mm
18:59 56.7 °F /  13.7 °C 47.7 °F /  8.7 °C 30.1in /  1019.3hPa Este 2.8mph /  4.5km/h 5mph /  8km/h 71.9% 0in /  0.0mm
19:04 56.5 °F /  13.6 °C 47.8 °F /  8.8 °C 30.1in /  1019.5hPa Este 2.4mph /  3.9km/h 5.9mph /  9.5km/h 73% 0in /  0.0mm
19:09 56.1 °F /  13.4 °C 47.8 °F /  8.8 °C 30.1in /  1019.5hPa Este 2.8mph /  4.5km/h 6.9mph /  11.1km/h 73.8% 0in /  0.0mm
19:14 55.9 °F /  13.3 °C 48 °F /  8.9 °C 30.1in /  1019.5hPa Este 3.1mph /  5km/h 7mph /  11.3km/h 74.8% 0in /  0.0mm
19:19 55.8 °F /  13.2 °C 48.2 °F /  9 °C 30.1in /  1019.6hPa Este 3.4mph /  5.5km/h 6mph /  9.7km/h 75.8% 0in /  0.0mm
19:24 55.6 °F /  13.1 °C 48.2 °F /  9 °C 30.1in /  1019.6hPa ENE 3.6mph /  5.8km/h 5.2mph /  8.4km/h 76.1% 0in /  0.0mm
19:29 55.6 °F /  13.1 °C 48.4 °F /  9.1 °C 30.1in /  1019.6hPa ENE 3.2mph /  5.1km/h 5mph /  8km/h 77% 0in /  0.0mm
19:34 55.2 °F /  12.9 °C 48.2 °F /  9 °C 30.1in /  1019.6hPa ENE 2.9mph /  4.7km/h 5mph /  8km/h 77% 0in /  0.0mm
19:39 55 °F /  12.8 °C 48.2 °F /  9 °C 30.1in /  1019.6hPa ENE 2.6mph /  4.2km/h 5mph /  8km/h 77.5% 0in /  0.0mm
19:44 54.9 °F /  12.7 °C 47.8 °F /  8.8 °C 30.1in /  1019.6hPa ENE 2.4mph /  3.9km/h 4.6mph /  7.4km/h 77% 0in /  0.0mm
19:49 54.7 °F /  12.6 °C 47.5 °F /  8.6 °C 30.1in /  1019.7hPa NE 2.2mph /  3.5km/h 5mph /  8km/h 77% 0in /  0.0mm
19:54 54.1 °F /  12.3 °C 47.5 °F /  8.6 °C 30.1in /  1019.7hPa NE 2mph /  3.2km/h 5mph /  8km/h 77.8% 0in /  0.0mm
19:59 54 °F /  12.2 °C 47.3 °F /  8.5 °C 30.1in /  1019.7hPa NE 2.2mph /  3.6km/h 4mph /  6.4km/h 78% 0in /  0.0mm
20:04 53.8 °F /  12.1 °C 47.3 °F /  8.5 °C 30.1in /  1019.8hPa NE 2.4mph /  3.9km/h 4.6mph /  7.4km/h 79% 0in /  0.0mm
20:09 53.4 °F /  11.9 °C 47.5 °F /  8.6 °C 30.1in /  1019.8hPa North 2.7mph /  4.3km/h 5.8mph /  9.3km/h 79.9% 0in /  0.0mm
20:14 53.2 °F /  11.8 °C 47.5 °F /  8.6 °C 30.1in /  1019.8hPa NE 2.9mph /  4.6km/h 6mph /  9.7km/h 80.5% 0in /  0.0mm
20:19 53.1 °F /  11.7 °C 47.5 °F /  8.6 °C 30.1in /  1019.9hPa NE 2.6mph /  4.2km/h 5mph /  8km/h 81% 0in /  0.0mm
20:24 53.1 °F /  11.7 °C 47.5 °F /  8.6 °C 30.1in /  1019.9hPa NNE 2.4mph /  3.9km/h 5.2mph /  8.4km/h 81.8% 0in /  0.0mm
20:29 52.9 °F /  11.6 °C 47.5 °F /  8.6 °C 30.1in /  1019.9hPa NNE 2.7mph /  4.3km/h 5.4mph /  8.7km/h 82.2% 0in /  0.0mm
20:34 52.5 °F /  11.4 °C 47.5 °F /  8.6 °C 30.1in /  1020.0hPa NE 2.9mph /  4.6km/h 6.2mph /  10km/h 83% 0in /  0.0mm
20:39 52.3 °F /  11.3 °C 47.3 °F /  8.5 °C 30.1in /  1020.0hPa NNE 3.3mph /  5.3km/h 6mph /  9.7km/h 83% 0in /  0.0mm
20:44 52.2 °F /  11.2 °C 47.5 °F /  8.6 °C 30.1in /  1020.0hPa NNE 3.6mph /  5.8km/h 6mph /  9.7km/h 83.8% 0in /  0.0mm
20:49 52.2 °F /  11.2 °C 47.5 °F /  8.6 °C 30.1in /  1020.0hPa NNE 3.2mph /  5.1km/h 6.2mph /  10km/h 84% 0in /  0.0mm
20:54 51.8 °F /  11 °C 47.1 °F /  8.4 °C 30.1in /  1020.0hPa NNE 2.9mph /  4.7km/h 6mph /  9.7km/h 84% 0in /  0.0mm
20:59 51.4 °F /  10.8 °C 46.9 °F /  8.3 °C 30.1in /  1020.0hPa North 2.5mph /  4.1km/h 5mph /  8km/h 84.4% 0in /  0.0mm
21:04 51.3 °F /  10.7 °C 46.9 °F /  8.3 °C 30.1in /  1020.1hPa North 2.4mph /  3.9km/h 5mph /  8km/h 85% 0in /  0.0mm
21:09 51.3 °F /  10.7 °C 46.9 °F /  8.3 °C 30.1in /  1020.1hPa North 1.8mph /  2.9km/h 2.3mph /  3.7km/h 85% 0in /  0.0mm
21:14 51.1 °F /  10.6 °C 46.9 °F /  8.3 °C 30.1in /  1020.1hPa North 1.4mph /  2.2km/h 2.4mph /  3.9km/h 85.9% 0in /  0.0mm
21:19 50.9 °F /  10.5 °C 46.9 °F /  8.3 °C 30.1in /  1020.1hPa North 0.6mph /  0.9km/h 2mph /  3.2km/h 86% 0in /  0.0mm
21:24 50.9 °F /  10.5 °C 47.1 °F /  8.4 °C 30.1in /  1020.0hPa Calm   1mph /  1.6km/h 86.8% 0in /  0.0mm
21:29 50.7 °F /  10.4 °C 47.1 °F /  8.4 °C 30.1in /  1020.0hPa Calm     87.1% 0in /  0.0mm
21:34 50.9 °F /  10.5 °C 47.5 °F /  8.6 °C 30.1in /  1020.1hPa Calm     88% 0in /  0.0mm
21:39 51.1 °F /  10.6 °C 47.7 °F /  8.7 °C 30.1in /  1020.1hPa Calm   2.3mph /  3.7km/h 88% 0in /  0.0mm
21:44 51.1 °F /  10.6 °C 47.7 °F /  8.7 °C 30.1in /  1020.1hPa Calm   4.6mph /  7.4km/h 88% 0in /  0.0mm
21:49 51.1 °F /  10.6 °C 47.7 °F /  8.7 °C 30.1in /  1020.2hPa ENE 1.1mph /  1.7km/h 5mph /  8km/h 88% 0in /  0.0mm
21:54 51.1 °F /  10.6 °C 47.3 °F /  8.5 °C 30.1in /  1020.2hPa Este 1.8mph /  2.9km/h 4.6mph /  7.4km/h 87.3% 0in /  0.0mm
21:59 50.7 °F /  10.4 °C 47.3 °F /  8.5 °C 30.1in /  1020.2hPa Este 1.9mph /  3.1km/h 5mph /  8km/h 87.8% 0in /  0.0mm
22:04 50.7 °F /  10.4 °C 47.3 °F /  8.5 °C 30.1in /  1020.3hPa Este 2mph /  3.2km/h 1mph /  1.6km/h 88% 0in /  0.0mm
22:09 50.5 °F /  10.3 °C 47.1 °F /  8.4 °C 30.1in /  1020.3hPa Este 0.8mph /  1.3km/h   88% 0in /  0.0mm
22:14 50.5 °F /  10.3 °C 47.1 °F /  8.4 °C 30.1in /  1020.3hPa Calm   3.5mph /  5.6km/h 88% 0in /  0.0mm
22:19 50.4 °F /  10.2 °C 46.9 °F /  8.3 °C 30.1in /  1020.3hPa Este 0.9mph /  1.4km/h 3.5mph /  5.6km/h 88% 0in /  0.0mm
22:24 50.4 °F /  10.2 °C 46.9 °F /  8.3 °C 30.1in /  1020.2hPa Este 1.4mph /  2.2km/h 3mph /  4.8km/h 88% 0in /  0.0mm
22:29 50.4 °F /  10.2 °C 46.9 °F /  8.3 °C 30.1in /  1020.2hPa Este 0.6mph /  0.9km/h 3.6mph /  5.8km/h 88% 0in /  0.0mm
22:34 50.4 °F /  10.2 °C 46.8 °F /  8.2 °C 30.1in /  1020.3hPa Calm   4.6mph /  7.4km/h 87.6% 0in /  0.0mm
22:39 50.2 °F /  10.1 °C 46.4 °F /  8 °C 30.1in /  1020.3hPa Sur 1.4mph /  2.3km/h 5mph /  8km/h 87% 0in /  0.0mm
22:44 49.8 °F /  9.9 °C 46.2 °F /  7.9 °C 30.1in /  1020.3hPa Sur 2.4mph /  3.9km/h 5mph /  8km/h 87% 0in /  0.0mm
22:49 49.8 °F /  9.9 °C 46 °F /  7.8 °C 30.1in /  1020.4hPa Sur 2.4mph /  3.9km/h 5mph /  8km/h 87% 0in /  0.0mm
22:54 49.8 °F /  9.9 °C 46 °F /  7.8 °C 30.1in /  1020.4hPa Sur 2.4mph /  3.9km/h 5mph /  8km/h 87% 0in /  0.0mm
22:59 49.8 °F /  9.9 °C 46.2 °F /  7.9 °C 30.1in /  1020.4hPa Sur 2.7mph /  4.4km/h 5mph /  8km/h 87.5% 0in /  0.0mm
23:04 49.8 °F /  9.9 °C 46.4 °F /  8 °C 30.1in /  1020.4hPa SSO 2.9mph /  4.6km/h 5.2mph /  8.4km/h 88% 0in /  0.0mm
23:09 50 °F /  10 °C 46.2 °F /  7.9 °C 30.1in /  1020.3hPa SSO 3mph /  4.8km/h 5mph /  8km/h 87.3% 0in /  0.0mm
23:14 49.8 °F /  9.9 °C 46.2 °F /  7.9 °C 30.1in /  1020.3hPa SSO 3.1mph /  5km/h 5mph /  8km/h 87% 0in /  0.0mm
23:19 49.8 °F /  9.9 °C 46 °F /  7.8 °C 30.1in /  1020.3hPa SO 3mph /  4.8km/h 6.2mph /  10km/h 87% 0in /  0.0mm
23:24 49.8 °F /  9.9 °C 45.9 °F /  7.7 °C 30.1in /  1020.3hPa SSO 2.9mph /  4.7km/h 6mph /  9.7km/h 86.2% 0in /  0.0mm
23:29 49.6 °F /  9.8 °C 45.7 °F /  7.6 °C 30.1in /  1020.3hPa SSO 3.3mph /  5.3km/h 6mph /  9.7km/h 86% 0in /  0.0mm
23:34 49.6 °F /  9.8 °C 45.7 °F /  7.6 °C 30.1in /  1020.3hPa SSO 3.6mph /  5.8km/h 5.2mph /  8.4km/h 86% 0in /  0.0mm
23:39 49.6 °F /  9.8 °C 45.5 °F /  7.5 °C 30.1in /  1020.3hPa Sur 3.3mph /  5.3km/h 5mph /  8km/h 86% 0in /  0.0mm
23:44 49.5 °F /  9.7 °C 45.3 °F /  7.4 °C 30.1in /  1020.3hPa SSO 3.1mph /  5km/h 5.9mph /  9.5km/h 86% 0in /  0.0mm
23:49 49.3 °F /  9.6 °C 45.3 °F /  7.4 °C 30.1in /  1020.3hPa SSO 3.4mph /  5.4km/h 6mph /  9.7km/h 86% 0in /  0.0mm
23:54 49.3 °F /  9.6 °C 45.1 °F /  7.3 °C 30.1in /  1020.2hPa SSO 3.6mph /  5.8km/h 6mph /  9.7km/h 86% 0in /  0.0mm
23:59 48.9 °F /  9.4 °C 45 °F /  7.2 °C 30.1in /  1020.2hPa Sur 3.1mph /  5km/h 5mph /  8km/h 86% 0in /  0.0mm
Murcia-Puente Tocinos, España
Compliments of Weather Underground - 3.5 mb

La estación de MeteoMurcia.com, publica sus datos en los siguientes proyectos:

Weather Underground PWS IMURCIAP2 Meteoclimatic www.awekas.at

W3Counter
Web Analytics